sensor_id;sensor_type;location;lat;lon;timestamp;temperature;humidity
1800;DHT22;919;48.274;12.292;2024-01-27T00:00:44;2.30;99.90
1800;DHT22;919;48.274;12.292;2024-01-27T00:03:10;2.20;99.90
1800;DHT22;919;48.274;12.292;2024-01-27T00:05:37;2.20;99.90
1800;DHT22;919;48.274;12.292;2024-01-27T00:08:05;2.10;99.90
1800;DHT22;919;48.274;12.292;2024-01-27T00:10:33;2.20;99.90
1800;DHT22;919;48.274;12.292;2024-01-27T00:13:00;2.20;99.90
1800;DHT22;919;48.274;12.292;2024-01-27T00:15:27;2.20;99.90
1800;DHT22;919;48.274;12.292;2024-01-27T00:17:53;2.40;99.90
1800;DHT22;919;48.274;12.292;2024-01-27T00:20:20;2.40;99.90
1800;DHT22;919;48.274;12.292;2024-01-27T00:22:47;2.30;99.90
1800;DHT22;919;48.274;12.292;2024-01-27T00:25:15;2.30;99.90
1800;DHT22;919;48.274;12.292;2024-01-27T00:27:42;2.40;99.90
1800;DHT22;919;48.274;12.292;2024-01-27T00:30:09;2.40;99.90
1800;DHT22;919;48.274;12.292;2024-01-27T00:32:37;2.40;99.90
1800;DHT22;919;48.274;12.292;2024-01-27T00:35:04;2.30;99.90
1800;DHT22;919;48.274;12.292;2024-01-27T00:37:31;2.20;99.90
1800;DHT22;919;48.274;12.292;2024-01-27T00:39:57;2.10;99.90
1800;DHT22;919;48.274;12.292;2024-01-27T00:42:26;2.10;99.90
1800;DHT22;919;48.274;12.292;2024-01-27T00:44:52;2.10;99.90
1800;DHT22;919;48.274;12.292;2024-01-27T00:47:19;2.10;99.90
1800;DHT22;919;48.274;12.292;2024-01-27T00:49:46;2.10;99.90
1800;DHT22;919;48.274;12.292;2024-01-27T00:52:13;2.00;99.90
1800;DHT22;919;48.274;12.292;2024-01-27T00:54:39;2.10;99.90
1800;DHT22;919;48.274;12.292;2024-01-27T00:57:06;2.10;99.90
1800;DHT22;919;48.274;12.292;2024-01-27T00:59:34;2.00;99.90
1800;DHT22;919;48.274;12.292;2024-01-27T01:02:01;2.00;99.90
1800;DHT22;919;48.274;12.292;2024-01-27T01:04:28;2.00;99.90
1800;DHT22;919;48.274;12.292;2024-01-27T01:06:54;2.00;99.90
1800;DHT22;919;48.274;12.292;2024-01-27T01:09:21;2.10;99.90
1800;DHT22;919;48.274;12.292;2024-01-27T01:11:48;2.20;99.90
1800;DHT22;919;48.274;12.292;2024-01-27T01:14:15;2.10;99.90
1800;DHT22;919;48.274;12.292;2024-01-27T01:16:43;2.00;99.90
1800;DHT22;919;48.274;12.292;2024-01-27T01:19:09;1.90;99.90
1800;DHT22;919;48.274;12.292;2024-01-27T01:21:36;1.90;99.90
1800;DHT22;919;48.274;12.292;2024-01-27T01:24:03;2.00;99.90
1800;DHT22;919;48.274;12.292;2024-01-27T01:26:30;2.20;99.90
1800;DHT22;919;48.274;12.292;2024-01-27T01:28:56;2.20;99.90
1800;DHT22;919;48.274;12.292;2024-01-27T01:31:23;2.30;99.90
1800;DHT22;919;48.274;12.292;2024-01-27T01:33:51;2.20;99.90
1800;DHT22;919;48.274;12.292;2024-01-27T01:36:18;2.20;99.90
1800;DHT22;919;48.274;12.292;2024-01-27T01:38:45;2.00;99.90
1800;DHT22;919;48.274;12.292;2024-01-27T01:41:12;1.70;99.90
1800;DHT22;919;48.274;12.292;2024-01-27T01:43:39;1.60;99.90
1800;DHT22;919;48.274;12.292;2024-01-27T01:46:05;1.60;99.90
1800;DHT22;919;48.274;12.292;2024-01-27T01:48:32;1.60;99.90
1800;DHT22;919;48.274;12.292;2024-01-27T01:51:02;1.60;99.90
1800;DHT22;919;48.274;12.292;2024-01-27T01:53:29;1.60;99.90
1800;DHT22;919;48.274;12.292;2024-01-27T01:55:56;1.50;99.90
1800;DHT22;919;48.274;12.292;2024-01-27T01:58:22;1.40;99.90
1800;DHT22;919;48.274;12.292;2024-01-27T02:00:49;1.30;99.90
1800;DHT22;919;48.274;12.292;2024-01-27T02:03:16;1.30;99.90
1800;DHT22;919;48.274;12.292;2024-01-27T02:05:43;1.30;99.90
1800;DHT22;919;48.274;12.292;2024-01-27T02:08:11;1.30;99.90
1800;DHT22;919;48.274;12.292;2024-01-27T02:10:37;1.20;99.90
1800;DHT22;919;48.274;12.292;2024-01-27T02:13:14;1.20;99.90
1800;DHT22;919;48.274;12.292;2024-01-27T02:15:42;1.20;99.90
1800;DHT22;919;48.274;12.292;2024-01-27T02:18:09;1.20;99.90
1800;DHT22;919;48.274;12.292;2024-01-27T02:20:35;1.20;99.90
1800;DHT22;919;48.274;12.292;2024-01-27T02:23:02;1.20;99.90
1800;DHT22;919;48.274;12.292;2024-01-27T02:25:31;1.20;99.90
1800;DHT22;919;48.274;12.292;2024-01-27T02:27:58;1.20;99.90
1800;DHT22;919;48.274;12.292;2024-01-27T02:30:25;1.20;99.90
1800;DHT22;919;48.274;12.292;2024-01-27T02:32:53;1.20;99.90
1800;DHT22;919;48.274;12.292;2024-01-27T02:35:19;1.20;99.90
1800;DHT22;919;48.274;12.292;2024-01-27T02:37:46;1.20;99.90
1800;DHT22;919;48.274;12.292;2024-01-27T02:40:13;1.20;99.90
1800;DHT22;919;48.274;12.292;2024-01-27T02:42:41;1.20;99.90
1800;DHT22;919;48.274;12.292;2024-01-27T02:45:09;1.20;99.90
1800;DHT22;919;48.274;12.292;2024-01-27T02:47:36;1.20;99.90
1800;DHT22;919;48.274;12.292;2024-01-27T02:50:04;1.30;99.90
1800;DHT22;919;48.274;12.292;2024-01-27T02:52:31;1.30;99.90
1800;DHT22;919;48.274;12.292;2024-01-27T02:54:58;1.20;99.90
1800;DHT22;919;48.274;12.292;2024-01-27T02:57:25;1.10;99.90
1800;DHT22;919;48.274;12.292;2024-01-27T02:59:53;1.10;99.90
1800;DHT22;919;48.274;12.292;2024-01-27T03:02:20;1.00;99.90
1800;DHT22;919;48.274;12.292;2024-01-27T03:04:46;1.00;99.90
1800;DHT22;919;48.274;12.292;2024-01-27T03:07:13;1.00;99.90
1800;DHT22;919;48.274;12.292;2024-01-27T03:09:40;1.00;99.90
1800;DHT22;919;48.274;12.292;2024-01-27T03:12:07;1.00;99.90
1800;DHT22;919;48.274;12.292;2024-01-27T03:14:34;1.00;99.90
1800;DHT22;919;48.274;12.292;2024-01-27T03:17:02;1.00;99.90
1800;DHT22;919;48.274;12.292;2024-01-27T03:19:29;1.00;99.90
1800;DHT22;919;48.274;12.292;2024-01-27T03:21:55;1.00;99.90
1800;DHT22;919;48.274;12.292;2024-01-27T03:24:22;1.00;99.90
1800;DHT22;919;48.274;12.292;2024-01-27T03:26:49;1.00;99.90
1800;DHT22;919;48.274;12.292;2024-01-27T03:29:15;1.10;99.90
1800;DHT22;919;48.274;12.292;2024-01-27T03:31:42;1.10;99.90
1800;DHT22;919;48.274;12.292;2024-01-27T03:34:10;1.20;99.90
1800;DHT22;919;48.274;12.292;2024-01-27T03:36:37;1.20;99.90
1800;DHT22;919;48.274;12.292;2024-01-27T03:39:03;1.10;99.90
1800;DHT22;919;48.274;12.292;2024-01-27T03:41:30;1.10;99.90
1800;DHT22;919;48.274;12.292;2024-01-27T03:43:57;1.10;99.90
1800;DHT22;919;48.274;12.292;2024-01-27T03:46:24;1.00;99.90
1800;DHT22;919;48.274;12.292;2024-01-27T03:48:50;0.90;99.90
1800;DHT22;919;48.274;12.292;2024-01-27T03:51:18;1.00;99.90
1800;DHT22;919;48.274;12.292;2024-01-27T03:53:45;1.10;99.90
1800;DHT22;919;48.274;12.292;2024-01-27T03:56:12;1.10;99.90
1800;DHT22;919;48.274;12.292;2024-01-27T03:58:39;1.10;99.90
1800;DHT22;919;48.274;12.292;2024-01-27T04:01:05;1.10;99.90
1800;DHT22;919;48.274;12.292;2024-01-27T04:03:32;1.10;99.90
1800;DHT22;919;48.274;12.292;2024-01-27T04:05:59;1.10;99.90
1800;DHT22;919;48.274;12.292;2024-01-27T04:08:29;1.10;99.90
1800;DHT22;919;48.274;12.292;2024-01-27T04:10:55;1.20;99.90
1800;DHT22;919;48.274;12.292;2024-01-27T04:13:22;1.20;99.90
1800;DHT22;919;48.274;12.292;2024-01-27T04:15:49;1.20;99.90
1800;DHT22;919;48.274;12.292;2024-01-27T04:18:17;1.20;99.90
1800;DHT22;919;48.274;12.292;2024-01-27T04:20:43;1.10;99.90
1800;DHT22;919;48.274;12.292;2024-01-27T04:23:11;1.00;99.90
1800;DHT22;919;48.274;12.292;2024-01-27T04:25:39;0.90;99.90
1800;DHT22;919;48.274;12.292;2024-01-27T04:28:06;0.80;99.90
1800;DHT22;919;48.274;12.292;2024-01-27T04:30:34;0.70;99.90
1800;DHT22;919;48.274;12.292;2024-01-27T04:33:01;0.70;99.90
1800;DHT22;919;48.274;12.292;2024-01-27T04:35:28;0.70;99.90
1800;DHT22;919;48.274;12.292;2024-01-27T04:37:54;0.80;99.90
1800;DHT22;919;48.274;12.292;2024-01-27T04:40:21;0.90;99.90
1800;DHT22;919;48.274;12.292;2024-01-27T04:42:49;0.90;99.90
1800;DHT22;919;48.274;12.292;2024-01-27T04:45:16;0.90;99.90
1800;DHT22;919;48.274;12.292;2024-01-27T04:47:43;0.90;99.90
1800;DHT22;919;48.274;12.292;2024-01-27T04:50:09;1.00;99.90
1800;DHT22;919;48.274;12.292;2024-01-27T04:52:36;1.00;99.90
1800;DHT22;919;48.274;12.292;2024-01-27T04:55:03;1.00;99.90
1800;DHT22;919;48.274;12.292;2024-01-27T04:57:30;1.00;99.90
1800;DHT22;919;48.274;12.292;2024-01-27T04:59:58;1.10;99.90
1800;DHT22;919;48.274;12.292;2024-01-27T05:02:25;1.10;99.90
1800;DHT22;919;48.274;12.292;2024-01-27T05:04:51;1.20;99.90
1800;DHT22;919;48.274;12.292;2024-01-27T05:07:18;1.20;99.90
1800;DHT22;919;48.274;12.292;2024-01-27T05:09:45;1.20;99.90
1800;DHT22;919;48.274;12.292;2024-01-27T05:12:12;1.20;99.90
1800;DHT22;919;48.274;12.292;2024-01-27T05:14:43;1.20;99.90
1800;DHT22;919;48.274;12.292;2024-01-27T05:17:11;1.10;99.90
1800;DHT22;919;48.274;12.292;2024-01-27T05:19:38;1.20;99.90
1800;DHT22;919;48.274;12.292;2024-01-27T05:22:04;1.10;99.90
1800;DHT22;919;48.274;12.292;2024-01-27T05:24:31;1.20;99.90
1800;DHT22;919;48.274;12.292;2024-01-27T05:26:59;1.10;99.90
1800;DHT22;919;48.274;12.292;2024-01-27T05:29:27;1.20;99.90
1800;DHT22;919;48.274;12.292;2024-01-27T05:31:54;1.10;99.90
1800;DHT22;919;48.274;12.292;2024-01-27T05:34:22;1.00;99.90
1800;DHT22;919;48.274;12.292;2024-01-27T05:36:48;0.90;99.90
1800;DHT22;919;48.274;12.292;2024-01-27T05:39:15;0.90;99.90
1800;DHT22;919;48.274;12.292;2024-01-27T05:41:42;0.90;99.90
1800;DHT22;919;48.274;12.292;2024-01-27T05:44:09;0.90;99.90
1800;DHT22;919;48.274;12.292;2024-01-27T05:46:35;0.90;99.90
1800;DHT22;919;48.274;12.292;2024-01-27T05:49:02;0.90;99.90
1800;DHT22;919;48.274;12.292;2024-01-27T05:51:30;0.90;99.90
1800;DHT22;919;48.274;12.292;2024-01-27T05:53:57;0.90;99.90
1800;DHT22;919;48.274;12.292;2024-01-27T05:56:24;0.90;99.90
1800;DHT22;919;48.274;12.292;2024-01-27T05:58:50;0.80;99.90
1800;DHT22;919;48.274;12.292;2024-01-27T06:01:17;0.80;99.90
1800;DHT22;919;48.274;12.292;2024-01-27T06:03:44;0.80;99.90
1800;DHT22;919;48.274;12.292;2024-01-27T06:06:11;0.80;99.90
1800;DHT22;919;48.274;12.292;2024-01-27T06:08:39;0.90;99.90
1800;DHT22;919;48.274;12.292;2024-01-27T06:11:07;0.90;99.90
1800;DHT22;919;48.274;12.292;2024-01-27T06:13:33;1.00;99.90
1800;DHT22;919;48.274;12.292;2024-01-27T06:16:06;1.00;99.90
1800;DHT22;919;48.274;12.292;2024-01-27T06:18:34;1.00;99.90
1800;DHT22;919;48.274;12.292;2024-01-27T06:21:01;1.00;99.90
1800;DHT22;919;48.274;12.292;2024-01-27T06:23:27;0.80;99.90
1800;DHT22;919;48.274;12.292;2024-01-27T06:25:55;0.60;99.90
1800;DHT22;919;48.274;12.292;2024-01-27T06:28:22;0.60;99.90
1800;DHT22;919;48.274;12.292;2024-01-27T06:30:49;0.60;99.90
1800;DHT22;919;48.274;12.292;2024-01-27T06:33:15;0.60;99.90
1800;DHT22;919;48.274;12.292;2024-01-27T06:35:42;0.60;99.90
1800;DHT22;919;48.274;12.292;2024-01-27T06:38:09;0.60;99.90
1800;DHT22;919;48.274;12.292;2024-01-27T06:40:36;0.50;99.90
1800;DHT22;919;48.274;12.292;2024-01-27T06:43:04;0.50;99.90
1800;DHT22;919;48.274;12.292;2024-01-27T06:45:30;0.40;99.90
1800;DHT22;919;48.274;12.292;2024-01-27T06:47:57;0.50;99.90
1800;DHT22;919;48.274;12.292;2024-01-27T06:50:24;0.50;99.90
1800;DHT22;919;48.274;12.292;2024-01-27T06:52:50;0.40;99.90
1800;DHT22;919;48.274;12.292;2024-01-27T06:55:18;0.50;99.90
1800;DHT22;919;48.274;12.292;2024-01-27T06:57:44;0.50;99.90
1800;DHT22;919;48.274;12.292;2024-01-27T07:00:13;0.40;99.90
1800;DHT22;919;48.274;12.292;2024-01-27T07:02:41;0.40;99.90
1800;DHT22;919;48.274;12.292;2024-01-27T07:05:08;0.40;99.90
1800;DHT22;919;48.274;12.292;2024-01-27T07:07:35;0.40;99.90
1800;DHT22;919;48.274;12.292;2024-01-27T07:10:03;0.40;99.90
1800;DHT22;919;48.274;12.292;2024-01-27T07:12:29;0.50;99.90
1800;DHT22;919;48.274;12.292;2024-01-27T07:14:56;0.50;99.90
1800;DHT22;919;48.274;12.292;2024-01-27T07:17:26;0.50;99.90
1800;DHT22;919;48.274;12.292;2024-01-27T07:19:53;0.50;99.90
1800;DHT22;919;48.274;12.292;2024-01-27T07:22:20;0.40;99.90
1800;DHT22;919;48.274;12.292;2024-01-27T07:24:47;0.40;99.90
1800;DHT22;919;48.274;12.292;2024-01-27T07:27:16;0.50;99.90
1800;DHT22;919;48.274;12.292;2024-01-27T07:29:43;0.50;99.90
1800;DHT22;919;48.274;12.292;2024-01-27T07:32:10;0.60;99.90
1800;DHT22;919;48.274;12.292;2024-01-27T07:34:40;0.60;99.90
1800;DHT22;919;48.274;12.292;2024-01-27T07:37:07;0.70;99.90
1800;DHT22;919;48.274;12.292;2024-01-27T07:39:34;0.70;99.90
1800;DHT22;919;48.274;12.292;2024-01-27T07:42:00;0.90;99.90
1800;DHT22;919;48.274;12.292;2024-01-27T07:44:28;0.90;99.90
1800;DHT22;919;48.274;12.292;2024-01-27T07:46:55;1.00;99.90
1800;DHT22;919;48.274;12.292;2024-01-27T07:49:22;1.10;99.90
1800;DHT22;919;48.274;12.292;2024-01-27T07:51:50;1.10;99.90
1800;DHT22;919;48.274;12.292;2024-01-27T07:54:17;1.20;99.90
1800;DHT22;919;48.274;12.292;2024-01-27T07:56:43;1.30;99.90
1800;DHT22;919;48.274;12.292;2024-01-27T07:59:10;1.40;99.90
1800;DHT22;919;48.274;12.292;2024-01-27T08:01:39;1.50;99.90
1800;DHT22;919;48.274;12.292;2024-01-27T08:04:06;1.60;99.90
1800;DHT22;919;48.274;12.292;2024-01-27T08:06:33;1.60;99.90
1800;DHT22;919;48.274;12.292;2024-01-27T08:09:03;1.70;99.90
1800;DHT22;919;48.274;12.292;2024-01-27T08:11:29;1.80;99.90
1800;DHT22;919;48.274;12.292;2024-01-27T08:13:56;1.90;99.90
1800;DHT22;919;48.274;12.292;2024-01-27T08:16:23;2.00;99.90
1800;DHT22;919;48.274;12.292;2024-01-27T08:18:50;2.10;99.90
1800;DHT22;919;48.274;12.292;2024-01-27T08:21:17;2.20;99.90
1800;DHT22;919;48.274;12.292;2024-01-27T08:23:44;2.40;99.90
1800;DHT22;919;48.274;12.292;2024-01-27T08:26:12;2.50;99.90
1800;DHT22;919;48.274;12.292;2024-01-27T08:28:38;2.60;99.90
1800;DHT22;919;48.274;12.292;2024-01-27T08:31:04;2.60;99.90
1800;DHT22;919;48.274;12.292;2024-01-27T08:33:32;2.80;99.90
1800;DHT22;919;48.274;12.292;2024-01-27T08:35:59;2.80;99.90
1800;DHT22;919;48.274;12.292;2024-01-27T08:38:26;2.90;99.90
1800;DHT22;919;48.274;12.292;2024-01-27T08:40:53;2.90;99.90
1800;DHT22;919;48.274;12.292;2024-01-27T08:43:21;3.00;99.90
1800;DHT22;919;48.274;12.292;2024-01-27T08:45:48;3.10;99.90
1800;DHT22;919;48.274;12.292;2024-01-27T08:48:14;3.10;99.90
1800;DHT22;919;48.274;12.292;2024-01-27T08:50:42;3.20;99.90
1800;DHT22;919;48.274;12.292;2024-01-27T08:53:08;3.30;99.90
1800;DHT22;919;48.274;12.292;2024-01-27T08:55:35;3.40;99.90
1800;DHT22;919;48.274;12.292;2024-01-27T08:58:02;3.40;99.90
1800;DHT22;919;48.274;12.292;2024-01-27T09:00:33;3.50;99.90
1800;DHT22;919;48.274;12.292;2024-01-27T09:03:00;3.60;99.90
1800;DHT22;919;48.274;12.292;2024-01-27T09:05:27;3.70;99.90
1800;DHT22;919;48.274;12.292;2024-01-27T09:07:54;3.70;99.90
1800;DHT22;919;48.274;12.292;2024-01-27T09:10:20;3.80;99.90
1800;DHT22;919;48.274;12.292;2024-01-27T09:12:47;3.90;99.90
1800;DHT22;919;48.274;12.292;2024-01-27T09:15:14;3.90;99.90
1800;DHT22;919;48.274;12.292;2024-01-27T09:17:42;3.90;99.90
1800;DHT22;919;48.274;12.292;2024-01-27T09:20:09;4.10;99.90
1800;DHT22;919;48.274;12.292;2024-01-27T09:22:36;4.10;99.90
1800;DHT22;919;48.274;12.292;2024-01-27T09:25:03;4.10;99.90
1800;DHT22;919;48.274;12.292;2024-01-27T09:27:30;4.20;99.90
1800;DHT22;919;48.274;12.292;2024-01-27T09:29:57;4.20;99.90
1800;DHT22;919;48.274;12.292;2024-01-27T09:32:24;4.20;99.90
1800;DHT22;919;48.274;12.292;2024-01-27T09:34:52;4.40;99.90
1800;DHT22;919;48.274;12.292;2024-01-27T09:37:19;4.50;99.90
1800;DHT22;919;48.274;12.292;2024-01-27T09:39:46;4.60;99.90
1800;DHT22;919;48.274;12.292;2024-01-27T09:42:13;4.70;99.90
1800;DHT22;919;48.274;12.292;2024-01-27T09:44:42;4.60;99.90
1800;DHT22;919;48.274;12.292;2024-01-27T09:47:10;4.70;99.90
1800;DHT22;919;48.274;12.292;2024-01-27T09:49:39;4.70;99.90
1800;DHT22;919;48.274;12.292;2024-01-27T09:52:07;4.80;99.90
1800;DHT22;919;48.274;12.292;2024-01-27T09:54:34;4.90;99.90
1800;DHT22;919;48.274;12.292;2024-01-27T09:57:01;4.80;99.90
1800;DHT22;919;48.274;12.292;2024-01-27T09:59:29;4.90;99.90
1800;DHT22;919;48.274;12.292;2024-01-27T10:01:57;5.00;99.90
1800;DHT22;919;48.274;12.292;2024-01-27T10:04:25;5.00;99.90
1800;DHT22;919;48.274;12.292;2024-01-27T10:06:52;5.20;99.90
1800;DHT22;919;48.274;12.292;2024-01-27T10:09:20;5.20;99.90
1800;DHT22;919;48.274;12.292;2024-01-27T10:11:47;5.30;99.90
1800;DHT22;919;48.274;12.292;2024-01-27T10:14:14;5.30;99.90
1800;DHT22;919;48.274;12.292;2024-01-27T10:16:41;5.30;99.90
1800;DHT22;919;48.274;12.292;2024-01-27T10:19:14;5.50;99.90
1800;DHT22;919;48.274;12.292;2024-01-27T10:21:41;5.60;99.90
1800;DHT22;919;48.274;12.292;2024-01-27T10:24:08;5.60;99.90
1800;DHT22;919;48.274;12.292;2024-01-27T10:26:36;5.60;99.90
1800;DHT22;919;48.274;12.292;2024-01-27T10:29:03;5.60;99.90
1800;DHT22;919;48.274;12.292;2024-01-27T10:31:30;5.60;99.90
1800;DHT22;919;48.274;12.292;2024-01-27T10:33:58;5.70;99.90
1800;DHT22;919;48.274;12.292;2024-01-27T10:36:37;5.70;99.90
1800;DHT22;919;48.274;12.292;2024-01-27T10:39:14;5.60;99.90
1800;DHT22;919;48.274;12.292;2024-01-27T10:41:44;5.80;99.90
1800;DHT22;919;48.274;12.292;2024-01-27T10:44:14;5.80;99.90
1800;DHT22;919;48.274;12.292;2024-01-27T10:46:43;5.80;99.90
1800;DHT22;919;48.274;12.292;2024-01-27T10:49:12;5.80;99.90
1800;DHT22;919;48.274;12.292;2024-01-27T10:51:44;5.90;99.90
1800;DHT22;919;48.274;12.292;2024-01-27T10:54:14;5.90;99.90
1800;DHT22;919;48.274;12.292;2024-01-27T10:56:45;6.00;99.90
1800;DHT22;919;48.274;12.292;2024-01-27T10:59:13;6.00;99.90
1800;DHT22;919;48.274;12.292;2024-01-27T11:01:41;5.80;99.90
1800;DHT22;919;48.274;12.292;2024-01-27T11:04:10;5.80;99.90
1800;DHT22;919;48.274;12.292;2024-01-27T11:06:39;5.90;99.90
1800;DHT22;919;48.274;12.292;2024-01-27T11:09:08;5.90;99.90
1800;DHT22;919;48.274;12.292;2024-01-27T11:11:36;6.00;99.90
1800;DHT22;919;48.274;12.292;2024-01-27T11:14:05;6.10;99.90
1800;DHT22;919;48.274;12.292;2024-01-27T11:16:33;6.20;99.90
1800;DHT22;919;48.274;12.292;2024-01-27T11:19:00;6.20;99.90
1800;DHT22;919;48.274;12.292;2024-01-27T11:21:27;6.20;99.90
1800;DHT22;919;48.274;12.292;2024-01-27T11:23:54;6.20;99.90
1800;DHT22;919;48.274;12.292;2024-01-27T11:26:22;6.30;99.90
1800;DHT22;919;48.274;12.292;2024-01-27T11:28:51;6.30;99.90
1800;DHT22;919;48.274;12.292;2024-01-27T11:31:20;6.40;99.90
1800;DHT22;919;48.274;12.292;2024-01-27T11:33:48;6.40;99.90
1800;DHT22;919;48.274;12.292;2024-01-27T11:36:21;6.40;99.90
1800;DHT22;919;48.274;12.292;2024-01-27T11:38:48;6.40;99.90
1800;DHT22;919;48.274;12.292;2024-01-27T11:41:24;6.30;99.90
1800;DHT22;919;48.274;12.292;2024-01-27T11:43:52;6.40;99.90
1800;DHT22;919;48.274;12.292;2024-01-27T11:46:20;6.30;99.90
1800;DHT22;919;48.274;12.292;2024-01-27T11:48:47;6.60;99.90
1800;DHT22;919;48.274;12.292;2024-01-27T11:51:15;6.70;99.90
1800;DHT22;919;48.274;12.292;2024-01-27T11:53:43;6.60;99.90
1800;DHT22;919;48.274;12.292;2024-01-27T11:56:11;6.70;99.90
1800;DHT22;919;48.274;12.292;2024-01-27T11:58:37;6.80;99.90
1800;DHT22;919;48.274;12.292;2024-01-27T12:01:04;6.80;99.90
1800;DHT22;919;48.274;12.292;2024-01-27T12:03:32;6.80;99.90
1800;DHT22;919;48.274;12.292;2024-01-27T12:05:59;6.90;99.90
1800;DHT22;919;48.274;12.292;2024-01-27T12:08:26;7.00;99.90
1800;DHT22;919;48.274;12.292;2024-01-27T12:10:53;6.90;99.90
1800;DHT22;919;48.274;12.292;2024-01-27T12:13:20;6.80;99.90
1800;DHT22;919;48.274;12.292;2024-01-27T12:15:47;6.90;99.90
1800;DHT22;919;48.274;12.292;2024-01-27T12:18:14;7.00;99.90
1800;DHT22;919;48.274;12.292;2024-01-27T12:20:42;7.10;99.90
1800;DHT22;919;48.274;12.292;2024-01-27T12:23:09;7.10;99.90
1800;DHT22;919;48.274;12.292;2024-01-27T12:25:36;7.10;99.90
1800;DHT22;919;48.274;12.292;2024-01-27T12:28:03;7.00;99.90
1800;DHT22;919;48.274;12.292;2024-01-27T12:30:32;7.00;99.90
1800;DHT22;919;48.274;12.292;2024-01-27T12:32:59;7.00;99.90
1800;DHT22;919;48.274;12.292;2024-01-27T12:35:26;7.10;99.90
1800;DHT22;919;48.274;12.292;2024-01-27T12:37:55;7.00;99.90
1800;DHT22;919;48.274;12.292;2024-01-27T12:40:23;7.00;99.90
1800;DHT22;919;48.274;12.292;2024-01-27T12:42:50;7.20;99.90
1800;DHT22;919;48.274;12.292;2024-01-27T12:45:16;7.10;99.90
1800;DHT22;919;48.274;12.292;2024-01-27T12:47:44;7.20;99.90
1800;DHT22;919;48.274;12.292;2024-01-27T12:50:10;7.30;99.90
1800;DHT22;919;48.274;12.292;2024-01-27T12:52:37;7.30;99.90
1800;DHT22;919;48.274;12.292;2024-01-27T12:55:06;7.20;99.90
1800;DHT22;919;48.274;12.292;2024-01-27T12:57:34;7.20;99.90
1800;DHT22;919;48.274;12.292;2024-01-27T13:00:01;7.20;99.90
1800;DHT22;919;48.274;12.292;2024-01-27T13:02:29;7.20;99.90
1800;DHT22;919;48.274;12.292;2024-01-27T13:04:56;7.30;99.90
1800;DHT22;919;48.274;12.292;2024-01-27T13:07:23;7.40;99.90
1800;DHT22;919;48.274;12.292;2024-01-27T13:09:49;7.40;99.90
1800;DHT22;919;48.274;12.292;2024-01-27T13:12:17;7.40;99.90
1800;DHT22;919;48.274;12.292;2024-01-27T13:14:44;7.40;99.90
1800;DHT22;919;48.274;12.292;2024-01-27T13:17:11;7.40;99.90
1800;DHT22;919;48.274;12.292;2024-01-27T13:19:40;7.30;99.90
1800;DHT22;919;48.274;12.292;2024-01-27T13:22:06;7.20;99.90
1800;DHT22;919;48.274;12.292;2024-01-27T13:24:33;7.30;99.90
1800;DHT22;919;48.274;12.292;2024-01-27T13:27:01;7.30;99.90
1800;DHT22;919;48.274;12.292;2024-01-27T13:29:29;7.40;99.90
1800;DHT22;919;48.274;12.292;2024-01-27T13:31:57;7.30;99.90
1800;DHT22;919;48.274;12.292;2024-01-27T13:34:27;7.10;99.90
1800;DHT22;919;48.274;12.292;2024-01-27T13:36:55;7.20;99.90
1800;DHT22;919;48.274;12.292;2024-01-27T13:39:24;7.30;99.90
1800;DHT22;919;48.274;12.292;2024-01-27T13:41:51;7.30;99.90
1800;DHT22;919;48.274;12.292;2024-01-27T13:44:18;7.40;99.90
1800;DHT22;919;48.274;12.292;2024-01-27T13:46:46;7.20;99.90
1800;DHT22;919;48.274;12.292;2024-01-27T13:49:13;7.10;99.90
1800;DHT22;919;48.274;12.292;2024-01-27T13:51:39;7.10;99.90
1800;DHT22;919;48.274;12.292;2024-01-27T13:54:06;7.20;99.90
1800;DHT22;919;48.274;12.292;2024-01-27T13:56:34;7.40;99.90
1800;DHT22;919;48.274;12.292;2024-01-27T13:59:01;7.50;99.90
1800;DHT22;919;48.274;12.292;2024-01-27T14:01:29;7.70;99.90
1800;DHT22;919;48.274;12.292;2024-01-27T14:03:57;7.90;99.90
1800;DHT22;919;48.274;12.292;2024-01-27T14:06:24;8.00;99.90
1800;DHT22;919;48.274;12.292;2024-01-27T14:08:51;8.00;99.90
1800;DHT22;919;48.274;12.292;2024-01-27T14:11:18;7.80;99.90
1800;DHT22;919;48.274;12.292;2024-01-27T14:13:46;7.80;99.90
1800;DHT22;919;48.274;12.292;2024-01-27T14:16:13;7.50;99.90
1800;DHT22;919;48.274;12.292;2024-01-27T14:18:40;7.50;99.90
1800;DHT22;919;48.274;12.292;2024-01-27T14:21:09;7.40;99.90
1800;DHT22;919;48.274;12.292;2024-01-27T14:23:36;7.30;99.90
1800;DHT22;919;48.274;12.292;2024-01-27T14:26:03;7.40;99.90
1800;DHT22;919;48.274;12.292;2024-01-27T14:28:33;7.30;99.90
1800;DHT22;919;48.274;12.292;2024-01-27T14:31:00;7.40;99.90
1800;DHT22;919;48.274;12.292;2024-01-27T14:33:27;7.40;99.90
1800;DHT22;919;48.274;12.292;2024-01-27T14:35:54;7.50;99.90
1800;DHT22;919;48.274;12.292;2024-01-27T14:38:22;7.50;99.90
1800;DHT22;919;48.274;12.292;2024-01-27T14:40:48;7.50;99.90
1800;DHT22;919;48.274;12.292;2024-01-27T14:43:15;7.50;99.90
1800;DHT22;919;48.274;12.292;2024-01-27T14:45:44;7.40;99.90
1800;DHT22;919;48.274;12.292;2024-01-27T14:48:11;7.40;99.90
1800;DHT22;919;48.274;12.292;2024-01-27T14:50:37;7.40;99.90
1800;DHT22;919;48.274;12.292;2024-01-27T14:53:04;7.30;99.90
1800;DHT22;919;48.274;12.292;2024-01-27T14:55:33;7.30;99.90
1800;DHT22;919;48.274;12.292;2024-01-27T14:57:59;7.30;99.90
1800;DHT22;919;48.274;12.292;2024-01-27T15:00:29;7.30;99.90
1800;DHT22;919;48.274;12.292;2024-01-27T15:02:55;7.30;99.90
1800;DHT22;919;48.274;12.292;2024-01-27T15:05:22;7.20;99.90
1800;DHT22;919;48.274;12.292;2024-01-27T15:07:49;7.20;99.90
1800;DHT22;919;48.274;12.292;2024-01-27T15:10:15;7.10;99.90
1800;DHT22;919;48.274;12.292;2024-01-27T15:12:43;7.00;99.90
1800;DHT22;919;48.274;12.292;2024-01-27T15:15:10;6.90;99.90
1800;DHT22;919;48.274;12.292;2024-01-27T15:17:38;6.90;99.90
1800;DHT22;919;48.274;12.292;2024-01-27T15:20:06;6.80;99.90
1800;DHT22;919;48.274;12.292;2024-01-27T15:22:33;6.60;99.90
1800;DHT22;919;48.274;12.292;2024-01-27T15:24:59;6.40;99.90
1800;DHT22;919;48.274;12.292;2024-01-27T15:27:26;6.30;99.90
1800;DHT22;919;48.274;12.292;2024-01-27T15:29:54;6.10;99.90
1800;DHT22;919;48.274;12.292;2024-01-27T15:32:21;6.10;99.90
1800;DHT22;919;48.274;12.292;2024-01-27T15:34:49;6.00;99.90
1800;DHT22;919;48.274;12.292;2024-01-27T15:37:15;5.80;99.90
1800;DHT22;919;48.274;12.292;2024-01-27T15:39:42;5.60;99.90
1800;DHT22;919;48.274;12.292;2024-01-27T15:42:10;5.40;99.90
1800;DHT22;919;48.274;12.292;2024-01-27T15:44:36;5.20;99.90
1800;DHT22;919;48.274;12.292;2024-01-27T15:47:05;5.10;99.90
1800;DHT22;919;48.274;12.292;2024-01-27T15:49:33;4.90;99.90
1800;DHT22;919;48.274;12.292;2024-01-27T15:52:00;4.70;99.90
1800;DHT22;919;48.274;12.292;2024-01-27T15:54:26;4.50;99.90
1800;DHT22;919;48.274;12.292;2024-01-27T15:56:53;4.30;99.90
1800;DHT22;919;48.274;12.292;2024-01-27T15:59:20;4.10;99.90
1800;DHT22;919;48.274;12.292;2024-01-27T16:01:47;3.90;99.90
1800;DHT22;919;48.274;12.292;2024-01-27T16:04:15;3.80;99.90
1800;DHT22;919;48.274;12.292;2024-01-27T16:06:42;3.80;99.90
1800;DHT22;919;48.274;12.292;2024-01-27T16:09:08;3.70;99.90
1800;DHT22;919;48.274;12.292;2024-01-27T16:11:36;3.60;99.90
1800;DHT22;919;48.274;12.292;2024-01-27T16:14:02;3.50;99.90
1800;DHT22;919;48.274;12.292;2024-01-27T16:16:29;3.30;99.90